createdAt,value
2017-06-30T00:00:15.309Z,16.41
2017-06-30T00:01:25.560Z,16.41
2017-06-30T00:02:35.503Z,16.43
2017-06-30T00:03:46.017Z,16.43
2017-06-30T00:04:56.273Z,16.49
2017-06-30T00:06:06.224Z,16.44
2017-06-30T00:07:16.482Z,16.44
2017-06-30T00:08:26.756Z,16.44
2017-06-30T00:09:37.320Z,16.49
2017-06-30T00:10:47.582Z,16.46
2017-06-30T00:11:57.833Z,16.44
2017-06-30T00:13:07.780Z,16.41
2017-06-30T00:14:17.718Z,16.44
2017-06-30T00:15:27.285Z,16.43
2017-06-30T00:16:37.232Z,16.32
2017-06-30T00:17:47.490Z,16.43
2017-06-30T00:18:57.747Z,16.36
2017-06-30T00:20:07.390Z,16.43
2017-06-30T00:21:17.950Z,16.4
2017-06-30T00:22:27.904Z,16.37
2017-06-30T00:23:37.880Z,16.39
2017-06-30T00:24:47.846Z,16.34
2017-06-30T00:25:57.801Z,16.34
2017-06-30T00:27:08.315Z,16.34
2017-06-30T00:28:18.572Z,16.39
2017-06-30T00:29:28.832Z,16.36
2017-06-30T00:30:38.782Z,16.29
2017-06-30T00:31:49.038Z,16.34
2017-06-30T00:32:59.599Z,16.32
2017-06-30T00:34:09.247Z,16.22
2017-06-30T00:35:19.495Z,16.22
2017-06-30T00:36:29.780Z,16.26
2017-06-30T00:37:39.735Z,16.25
2017-06-30T00:38:49.668Z,16.24
2017-06-30T00:39:59.931Z,16.12
2017-06-30T00:41:09.873Z,16.28
2017-06-30T00:42:19.840Z,16.22
2017-06-30T00:43:29.781Z,16.21
2017-06-30T00:44:40.347Z,16.09
2017-06-30T00:45:50.599Z,16.1
2017-06-30T00:47:00.870Z,16.12
2017-06-30T00:48:11.134Z,16.16
2017-06-30T00:49:21.398Z,16.05
2017-06-30T00:50:31.645Z,16.09
2017-06-30T00:51:41.917Z,16.1
2017-06-30T00:52:51.859Z,16.12
2017-06-30T00:54:02.109Z,16.09
2017-06-30T00:55:11.758Z,16.1
2017-06-30T00:56:22.015Z,16.08
2017-06-30T00:57:32.287Z,16.09
2017-06-30T00:58:42.234Z,16.06
2017-06-30T00:59:52.213Z,16.06
2017-06-30T01:01:02.160Z,16.09
2017-06-30T01:02:12.659Z,16.09
2017-06-30T01:03:22.926Z,15.99
2017-06-30T01:04:33.193Z,16
2017-06-30T01:05:43.449Z,16.03
2017-06-30T01:06:53.715Z,15.99
2017-06-30T01:08:04.244Z,16
2017-06-30T01:09:14.512Z,15.99
2017-06-30T01:10:24.453Z,15.98
2017-06-30T01:11:34.397Z,16.1
2017-06-30T01:12:44.647Z,16.02
2017-06-30T01:13:55.218Z,15.99
2017-06-30T01:15:05.487Z,15.92
2017-06-30T01:16:15.746Z,16
2017-06-30T01:17:25.699Z,15.98
2017-06-30T01:18:35.948Z,15.94
2017-06-30T01:19:46.507Z,15.99
2017-06-30T01:20:56.776Z,15.98
2017-06-30T01:22:06.744Z,15.98
2017-06-30T01:23:16.691Z,15.87
2017-06-30T01:24:26.966Z,15.9
2017-06-30T01:25:37.482Z,15.88
2017-06-30T01:26:47.757Z,15.9
2017-06-30T01:27:57.701Z,15.85
2017-06-30T01:29:07.951Z,15.84
2017-06-30T01:30:18.800Z,15.83
2017-06-30T01:31:29.042Z,15.87
2017-06-30T01:32:39.296Z,15.88
2017-06-30T01:33:49.245Z,15.92
2017-06-30T01:34:59.504Z,15.9
2017-06-30T01:36:09.761Z,15.87
2017-06-30T01:37:20.317Z,15.88
2017-06-30T01:38:30.262Z,15.87
2017-06-30T01:39:40.207Z,15.85
2017-06-30T01:40:50.476Z,15.81
2017-06-30T01:42:00.736Z,15.75
2017-06-30T01:43:11.304Z,15.75
2017-06-30T01:44:21.251Z,15.76
2017-06-30T01:45:31.508Z,15.83
2017-06-30T01:46:41.762Z,15.76
2017-06-30T01:47:52.019Z,15.76
2017-06-30T01:49:02.570Z,15.72
2017-06-30T01:50:12.831Z,15.73
2017-06-30T01:51:23.137Z,15.76
2017-06-30T01:52:32.778Z,15.78
2017-06-30T01:53:43.036Z,15.76
2017-06-30T01:54:53.559Z,15.73
2017-06-30T01:56:03.813Z,15.73
2017-06-30T01:57:14.079Z,15.78
2017-06-30T01:58:24.330Z,15.75
2017-06-30T01:59:34.280Z,15.75
2017-06-30T02:00:44.478Z,15.8
2017-06-30T02:01:54.422Z,15.78
2017-06-30T02:03:04.679Z,15.72
2017-06-30T02:04:14.947Z,15.85
2017-06-30T02:05:25.216Z,15.78
2017-06-30T02:06:35.160Z,15.85
2017-06-30T02:07:45.429Z,15.85
2017-06-30T02:08:55.681Z,15.84
2017-06-30T02:10:05.943Z,15.87
2017-06-30T02:11:16.206Z,15.85
2017-06-30T02:12:26.450Z,15.91
2017-06-30T02:13:36.387Z,15.87
2017-06-30T02:14:46.639Z,15.87
2017-06-30T02:15:56.591Z,15.85
2017-06-30T02:17:06.860Z,15.87
2017-06-30T02:18:17.423Z,15.87
2017-06-30T02:19:27.729Z,15.88
2017-06-30T02:20:37.665Z,15.81
2017-06-30T02:21:47.933Z,15.87
2017-06-30T02:22:58.200Z,15.9
2017-06-30T02:24:08.725Z,15.91
2017-06-30T02:25:18.997Z,15.85
2017-06-30T02:26:29.273Z,15.88
2017-06-30T02:27:39.517Z,15.84
2017-06-30T02:28:49.456Z,15.88
2017-06-30T02:29:59.962Z,15.92
2017-06-30T02:31:09.918Z,15.91
2017-06-30T02:32:19.564Z,15.94
2017-06-30T02:33:29.190Z,15.88
2017-06-30T02:34:39.515Z,15.88
2017-06-30T02:35:49.791Z,15.88
2017-06-30T02:37:00.057Z,15.84
2017-06-30T02:38:10.304Z,15.9
2017-06-30T02:39:20.556Z,15.87
2017-06-30T02:40:30.815Z,15.92
2017-06-30T02:41:41.329Z,15.87
2017-06-30T02:42:51.790Z,15.88
2017-06-30T02:44:02.055Z,15.85
2017-06-30T02:45:12.015Z,15.83
2017-06-30T02:46:22.279Z,15.84
2017-06-30T02:47:32.826Z,15.85
2017-06-30T02:48:42.773Z,15.85
2017-06-30T02:49:53.043Z,15.87
2017-06-30T02:51:03.288Z,15.85
2017-06-30T02:52:12.921Z,15.88
2017-06-30T02:53:23.421Z,15.88
2017-06-30T02:54:33.362Z,15.9
2017-06-30T02:55:43.622Z,15.85
2017-06-30T02:56:53.878Z,15.87
2017-06-30T02:58:03.818Z,15.84
2017-06-30T02:59:14.002Z,15.88
2017-06-30T03:00:24.260Z,15.87
2017-06-30T03:01:34.533Z,15.87
2017-06-30T03:02:44.794Z,15.87
2017-06-30T03:03:55.037Z,15.87
2017-06-30T03:05:05.544Z,15.91
2017-06-30T03:06:15.801Z,15.83
2017-06-30T03:07:26.054Z,15.84
2017-06-30T03:08:36.369Z,15.8
2017-06-30T03:09:46.629Z,15.88
2017-06-30T03:10:57.136Z,15.85
2017-06-30T03:12:07.389Z,15.92
2017-06-30T03:13:17.644Z,15.84
2017-06-30T03:14:27.601Z,15.84
2017-06-30T03:15:37.858Z,15.87
2017-06-30T03:16:48.423Z,15.83
2017-06-30T03:17:58.684Z,15.9
2017-06-30T03:19:08.946Z,15.84
2017-06-30T03:20:18.889Z,15.76
2017-06-30T03:21:29.162Z,15.84
2017-06-30T03:22:39.661Z,15.85
2017-06-30T03:23:49.924Z,15.81
2017-06-30T03:25:00.190Z,15.76
2017-06-30T03:26:10.138Z,15.76
2017-06-30T03:27:20.088Z,15.8
2017-06-30T03:28:30.651Z,15.75
2017-06-30T03:29:40.601Z,15.8
2017-06-30T03:30:50.864Z,15.8
2017-06-30T03:32:01.114Z,15.76
2017-06-30T03:33:11.061Z,15.75
2017-06-30T03:34:21.612Z,15.8
2017-06-30T03:35:31.564Z,15.81
2017-06-30T03:36:41.502Z,15.78
2017-06-30T03:37:51.757Z,15.73
2017-06-30T03:39:02.024Z,15.76
2017-06-30T03:40:12.571Z,15.7
2017-06-30T03:41:22.530Z,15.7
2017-06-30T03:42:32.480Z,15.73
2017-06-30T03:43:42.749Z,15.69
2017-06-30T03:44:52.997Z,15.78
2017-06-30T03:46:03.555Z,15.7
2017-06-30T03:47:13.490Z,15.76
2017-06-30T03:48:23.444Z,15.7
2017-06-30T03:49:33.711Z,15.67
2017-06-30T03:50:43.645Z,15.62
2017-06-30T03:51:54.197Z,15.62
2017-06-30T03:53:04.454Z,15.62
2017-06-30T03:54:14.708Z,15.67
2017-06-30T03:55:24.968Z,15.65
2017-06-30T03:56:35.233Z,15.6
2017-06-30T03:57:45.436Z,15.65
2017-06-30T03:58:55.691Z,15.67
2017-06-30T04:00:05.313Z,15.67
2017-06-30T04:01:15.575Z,15.57
2017-06-30T04:02:25.525Z,15.59
2017-06-30T04:03:36.101Z,15.54
2017-06-30T04:04:46.372Z,15.57
2017-06-30T04:05:56.319Z,15.6
2017-06-30T04:07:06.280Z,15.59
2017-06-30T04:08:16.529Z,15.51
2017-06-30T04:09:27.038Z,15.51
2017-06-30T04:10:36.985Z,15.48
2017-06-30T04:11:46.931Z,15.55
2017-06-30T04:12:57.224Z,15.54
2017-06-30T04:14:07.164Z,15.43
2017-06-30T04:15:17.672Z,15.44
2017-06-30T04:16:27.625Z,15.55
2017-06-30T04:17:37.873Z,15.51
2017-06-30T04:18:48.119Z,15.48
2017-06-30T04:19:58.062Z,15.48
2017-06-30T04:21:08.631Z,15.45
2017-06-30T04:22:18.876Z,15.48
2017-06-30T04:23:28.826Z,15.5
2017-06-30T04:24:39.087Z,15.5
2017-06-30T04:25:49.336Z,15.43
2017-06-30T04:26:59.898Z,15.43
2017-06-30T04:28:10.144Z,15.41
2017-06-30T04:29:20.082Z,15.3
2017-06-30T04:30:30.333Z,15.44
2017-06-30T04:31:40.308Z,15.27
2017-06-30T04:32:50.495Z,15.36
2017-06-30T04:34:00.758Z,15.33
2017-06-30T04:35:11.023Z,15.44
2017-06-30T04:36:21.285Z,15.37
2017-06-30T04:37:31.525Z,15.35
2017-06-30T04:38:42.019Z,15.37
2017-06-30T04:39:51.981Z,15.33
2017-06-30T04:41:02.253Z,15.33
2017-06-30T04:42:12.515Z,15.41
2017-06-30T04:43:22.761Z,15.39
2017-06-30T04:44:33.270Z,15.37
2017-06-30T04:45:43.520Z,15.27
2017-06-30T04:46:53.797Z,15.29
2017-06-30T04:48:04.309Z,15.29
2017-06-30T04:49:14.551Z,15.27
2017-06-30T04:50:25.073Z,15.25
2017-06-30T04:51:35.344Z,15.29
2017-06-30T04:52:45.648Z,15.25
2017-06-30T04:53:55.918Z,15.29
2017-06-30T04:55:06.211Z,15.19
2017-06-30T04:56:16.717Z,15.29
2017-06-30T04:57:26.985Z,15.26
2017-06-30T04:58:36.935Z,15.3
2017-06-30T04:59:47.176Z,15.15
2017-06-30T05:00:57.445Z,15.29
2017-06-30T05:02:07.649Z,15.25
2017-06-30T05:03:17.918Z,15.17
2017-06-30T05:04:28.191Z,15.26
2017-06-30T05:05:38.476Z,15.23
2017-06-30T05:06:48.737Z,15.32
2017-06-30T05:07:59.309Z,15.27
2017-06-30T05:09:09.592Z,15.22
2017-06-30T05:10:19.556Z,15.25
2017-06-30T05:11:29.519Z,15.22
2017-06-30T05:12:39.774Z,15.22
2017-06-30T05:13:50.287Z,15.26
2017-06-30T05:15:00.249Z,15.15
2017-06-30T05:16:10.191Z,15.22
2017-06-30T05:17:20.457Z,15.32
2017-06-30T05:18:30.734Z,15.29
2017-06-30T05:19:40.977Z,15.18
2017-06-30T05:20:51.258Z,15.22
2017-06-30T05:22:01.528Z,15.22
2017-06-30T05:23:11.805Z,15.26
2017-06-30T05:24:22.065Z,15.25
2017-06-30T05:25:32.259Z,15.25
2017-06-30T05:26:42.207Z,15.18
2017-06-30T05:27:52.465Z,15.18
2017-06-30T05:29:02.724Z,15.23
2017-06-30T05:30:12.998Z,15.12
2017-06-30T05:31:23.505Z,15.14
2017-06-30T05:32:33.758Z,15.14
2017-06-30T05:33:44.017Z,15.15
2017-06-30T05:34:54.289Z,15.18
2017-06-30T05:36:04.225Z,15.12
2017-06-30T05:37:14.431Z,15.12
2017-06-30T05:38:24.677Z,15.15
2017-06-30T05:39:34.951Z,15.22
2017-06-30T05:40:45.199Z,15.18
2017-06-30T05:41:55.451Z,15.15
2017-06-30T05:43:06.001Z,15.17
2017-06-30T05:44:16.253Z,15.25
2017-06-30T05:45:26.535Z,15.19
2017-06-30T05:46:36.799Z,15.14
2017-06-30T05:47:47.063Z,15.22
2017-06-30T05:48:57.614Z,15.14
2017-06-30T05:50:07.899Z,15.19
2017-06-30T05:51:17.596Z,15.15
2017-06-30T05:52:27.855Z,15.23
2017-06-30T05:53:38.122Z,15.17
2017-06-30T05:54:48.705Z,15.17
2017-06-30T05:55:59.006Z,15.17
2017-06-30T05:57:09.282Z,15.18
2017-06-30T05:58:19.244Z,15.18
2017-06-30T05:59:29.521Z,15.26
2017-06-30T06:00:40.124Z,15.23
2017-06-30T06:01:50.068Z,15.23
2017-06-30T06:03:00.326Z,15.26
2017-06-30T06:04:10.579Z,15.29
2017-06-30T06:05:20.546Z,15.26
2017-06-30T06:06:31.055Z,15.27
2017-06-30T06:07:41.329Z,15.35
2017-06-30T06:08:51.289Z,15.29
2017-06-30T06:10:01.562Z,15.3
2017-06-30T06:11:11.821Z,15.29
2017-06-30T06:12:22.397Z,15.3
2017-06-30T06:13:32.656Z,15.26
2017-06-30T06:14:42.910Z,15.41
2017-06-30T06:15:52.856Z,15.26
2017-06-30T06:17:02.794Z,15.44
2017-06-30T06:18:13.354Z,15.37
2017-06-30T06:19:23.609Z,15.33
2017-06-30T06:20:33.876Z,15.41
2017-06-30T06:21:44.150Z,15.41
2017-06-30T06:22:54.085Z,15.43
2017-06-30T06:24:03.992Z,15.44
2017-06-30T06:25:14.255Z,15.41
2017-06-30T06:26:24.197Z,15.39
2017-06-30T06:27:34.461Z,15.47
2017-06-30T06:28:44.721Z,15.39
2017-06-30T06:29:55.220Z,15.37
2017-06-30T06:31:05.482Z,15.36
2017-06-30T06:32:15.441Z,15.29
2017-06-30T06:33:25.705Z,15.29
2017-06-30T06:34:35.889Z,15.36
2017-06-30T06:35:46.387Z,15.45
2017-06-30T06:36:56.660Z,15.36
2017-06-30T06:38:06.930Z,15.36
2017-06-30T06:39:17.198Z,15.41
2017-06-30T06:40:27.135Z,15.43
2017-06-30T06:41:37.698Z,15.35
2017-06-30T06:42:47.962Z,15.33
2017-06-30T06:43:57.922Z,15.32
2017-06-30T06:45:08.213Z,15.37
2017-06-30T06:46:18.505Z,15.35
2017-06-30T06:47:29.064Z,15.32
2017-06-30T06:48:39.313Z,15.3
2017-06-30T06:49:49.568Z,15.23
2017-06-30T06:50:59.552Z,15.23
2017-06-30T06:52:09.807Z,15.19
2017-06-30T06:53:20.310Z,15.3
2017-06-30T06:54:30.266Z,15.26
2017-06-30T06:55:39.910Z,15.25
2017-06-30T06:56:50.174Z,15.18
2017-06-30T06:58:00.487Z,15.22
2017-06-30T06:59:11.066Z,15.23
2017-06-30T07:00:21.349Z,15.15
2017-06-30T07:01:31.619Z,15.32
2017-06-30T11:43:26.203Z,19.37
2017-06-30T11:44:36.192Z,19.24
2017-06-30T11:45:46.161Z,19.29
2017-06-30T11:46:55.835Z,19.3
2017-06-30T11:53:11.269Z,19.41
2017-06-30T11:54:21.559Z,19.35
2017-06-30T11:55:31.846Z,19.38
2017-06-30T11:56:42.137Z,19.38
2017-06-30T11:57:52.399Z,19.49
2017-06-30T11:59:02.933Z,19.6
2017-06-30T12:00:13.224Z,19.55
2017-06-30T12:01:23.521Z,19.7
2017-06-30T12:02:33.830Z,19.55
2017-06-30T12:03:43.500Z,19.48
2017-06-30T12:04:54.033Z,19.55
2017-06-30T12:06:04.332Z,19.67
2017-06-30T12:07:14.619Z,19.7
2017-06-30T12:08:24.894Z,19.64
2017-06-30T12:09:35.450Z,19.56
2017-06-30T12:10:45.380Z,19.6
2017-06-30T12:11:55.357Z,19.57
2017-06-30T12:13:05.633Z,19.63
2017-06-30T12:14:15.584Z,19.64
2017-06-30T12:15:25.245Z,19.66
2017-06-30T12:16:35.778Z,19.64
2017-06-30T12:17:45.413Z,19.67
2017-06-30T12:18:55.667Z,19.67
2017-06-30T12:20:05.940Z,19.84
2017-06-30T12:21:16.213Z,19.74
2017-06-30T12:22:26.446Z,19.77
2017-06-30T12:23:36.701Z,19.84
2017-06-30T12:24:46.971Z,19.87
2017-06-30T12:25:56.955Z,19.82
2017-06-30T12:27:07.228Z,19.87
2017-06-30T12:28:17.144Z,19.85
2017-06-30T12:29:27.407Z,19.81
2017-06-30T12:30:37.674Z,19.74
2017-06-30T12:31:47.977Z,19.75
2017-06-30T12:32:58.253Z,19.82
2017-06-30T12:34:08.592Z,19.75
2017-06-30T12:35:18.884Z,19.85
2017-06-30T12:36:29.134Z,19.78
2017-06-30T12:37:39.083Z,19.72
2017-06-30T12:38:49.354Z,19.81
2017-06-30T12:39:59.877Z,19.85
2017-06-30T12:41:09.900Z,19.89
2017-06-30T12:42:19.859Z,20.11
2017-06-30T12:43:30.123Z,20.22
2017-06-30T12:44:40.433Z,20.33
2017-06-30T12:45:50.640Z,20.33
2017-06-30T12:47:00.632Z,20.29
2017-06-30T12:48:10.898Z,20.3
2017-06-30T12:49:21.155Z,20.19
2017-06-30T12:50:31.113Z,20.36
2017-06-30T12:51:41.632Z,20.34
2017-06-30T12:52:51.901Z,20.44
2017-06-30T12:54:02.194Z,20.5
2017-06-30T12:55:12.184Z,20.66
2017-06-30T12:56:22.491Z,20.75
2017-06-30T12:57:33.014Z,20.8
2017-06-30T12:58:43.304Z,20.73
2017-06-30T12:59:53.585Z,20.67
2017-06-30T13:01:03.853Z,20.67
2017-06-30T13:02:14.118Z,20.67
2017-06-30T13:03:24.332Z,20.67
2017-06-30T13:04:34.594Z,20.66
2017-06-30T13:05:44.568Z,20.64
2017-06-30T13:06:54.841Z,20.68
2017-06-30T13:08:05.121Z,20.78
2017-06-30T13:09:15.646Z,20.82
2017-06-30T13:10:25.612Z,20.8
2017-06-30T13:11:35.883Z,20.74
2017-06-30T13:12:46.152Z,20.64
2017-06-30T13:13:56.492Z,20.64
2017-06-30T13:15:06.705Z,20.56
2017-06-30T13:16:17.010Z,20.52
2017-06-30T13:17:27.280Z,20.66
2017-06-30T13:18:37.553Z,20.6
2017-06-30T13:19:47.892Z,20.7
2017-06-30T13:20:58.404Z,20.78
2017-06-30T13:22:08.669Z,20.9
2017-06-30T13:23:18.923Z,20.89
2017-06-30T13:24:29.422Z,20.95
2017-06-30T13:25:39.068Z,20.83
2017-06-30T13:26:49.878Z,20.98
2017-06-30T13:28:00.166Z,21.05
2017-06-30T13:29:10.144Z,21
2017-06-30T13:30:20.107Z,21.03
2017-06-30T13:31:30.392Z,21.01
2017-06-30T13:32:40.915Z,21
2017-06-30T13:33:51.199Z,21.05
2017-06-30T13:35:01.481Z,21.07
2017-06-30T13:36:10.843Z,21.01
2017-06-30T13:37:20.807Z,20.88
2017-06-30T13:38:31.056Z,20.88
2017-06-30T13:39:41.334Z,20.74
2017-06-30T13:40:51.602Z,20.55
2017-06-30T13:42:01.889Z,20.49
2017-06-30T13:43:12.168Z,20.07
2017-06-30T13:44:22.693Z,19.85
2017-06-30T13:45:32.974Z,19.81
2017-06-30T13:46:42.940Z,19.59
2017-06-30T13:47:53.201Z,19.32
2017-06-30T13:49:02.849Z,19.05
2017-06-30T13:50:13.354Z,18.88
2017-06-30T13:51:23.322Z,18.73
2017-06-30T13:52:33.593Z,18.61
2017-06-30T13:53:43.851Z,18.39
2017-06-30T13:54:54.112Z,18.23
2017-06-30T13:56:04.345Z,18.15
2017-06-30T13:57:14.622Z,18.08
2017-06-30T13:58:24.886Z,18.12
2017-06-30T13:59:34.822Z,18.18
2017-06-30T14:00:44.462Z,18.23
2017-06-30T14:01:54.685Z,18.36
2017-06-30T14:03:04.643Z,18.41
2017-06-30T14:04:14.647Z,18.46
2017-06-30T14:05:24.917Z,18.48
2017-06-30T14:06:35.178Z,18.57
2017-06-30T14:07:45.383Z,18.58
2017-06-30T14:08:55.655Z,18.73
2017-06-30T14:10:05.612Z,18.66
2017-06-30T14:11:15.573Z,18.76
2017-06-30T14:12:25.850Z,18.94
2017-06-30T14:13:36.364Z,18.91
2017-06-30T14:14:46.639Z,18.88
2017-06-30T14:15:56.592Z,18.98
2017-06-30T14:17:06.872Z,18.96
2017-06-30T14:18:17.136Z,18.91
2017-06-30T14:19:27.670Z,18.7
2017-06-30T14:20:37.938Z,18.55
2017-06-30T14:21:48.221Z,18.34
2017-06-30T14:22:58.504Z,18.27
2017-06-30T14:24:08.466Z,17.98
2017-06-30T14:25:18.724Z,17.39
2017-06-30T14:26:28.998Z,16.64
2017-06-30T14:27:38.945Z,16.17
2017-06-30T14:28:48.892Z,16.06
2017-06-30T14:29:58.866Z,15.85
2017-06-30T14:31:09.404Z,15.8
2017-06-30T14:32:19.057Z,15.81
2017-06-30T14:33:29.319Z,15.72
2017-06-30T14:34:39.598Z,15.81
2017-06-30T14:35:49.854Z,15.85
2017-06-30T14:36:59.746Z,15.91
2017-06-30T14:38:10.019Z,15.81
2017-06-30T14:39:20.288Z,15.81
2017-06-30T14:40:30.271Z,15.76
2017-06-30T14:41:40.543Z,15.76
2017-06-30T14:42:51.075Z,15.87
2017-06-30T14:44:01.032Z,15.75
2017-06-30T14:45:11.308Z,15.69
2017-06-30T14:46:21.295Z,15.37
2017-06-30T14:47:31.262Z,15.22
2017-06-30T14:48:41.154Z,15.22
2017-06-30T14:49:51.109Z,15.15
2017-06-30T14:51:01.381Z,15.14
2017-06-30T14:52:11.638Z,15.12
2017-06-30T14:53:21.908Z,15.1
2017-06-30T14:54:32.476Z,15.08
2017-06-30T14:55:42.745Z,15.08
2017-06-30T14:56:52.709Z,15.1
2017-06-30T14:58:02.963Z,15.11
2017-06-30T14:59:12.903Z,15.15
2017-06-30T15:00:23.430Z,15.1
2017-06-30T15:01:33.692Z,15.1
2017-06-30T15:02:43.646Z,15.17
2017-06-30T15:03:53.908Z,15.12
2017-06-30T15:05:04.384Z,15.11
2017-06-30T15:06:14.906Z,15.17
2017-06-30T15:07:25.166Z,15.19
2017-06-30T15:08:35.151Z,15.19
2017-06-30T15:09:44.803Z,15.15
2017-06-30T15:10:54.447Z,15.12
2017-06-30T15:12:04.781Z,15.17
2017-06-30T15:13:15.045Z,15.23
2017-06-30T15:14:25.021Z,15.29
2017-06-30T15:15:34.980Z,15.19
2017-06-30T15:16:44.967Z,15.26
2017-06-30T15:17:55.181Z,15.33
2017-06-30T15:19:05.435Z,15.37
2017-06-30T15:20:15.703Z,15.37
2017-06-30T15:21:25.978Z,15.41
2017-06-30T15:22:36.230Z,15.52
2017-06-30T15:23:46.798Z,15.5
2017-06-30T15:24:57.076Z,15.6
2017-06-30T15:26:06.401Z,15.65
2017-06-30T15:27:16.055Z,15.76
2017-06-30T15:28:26.311Z,15.81
2017-06-30T15:29:36.829Z,15.84
2017-06-30T15:30:47.080Z,15.78
2017-06-30T15:31:57.369Z,15.85
2017-06-30T15:33:07.635Z,16.02
2017-06-30T15:34:17.913Z,15.9
2017-06-30T15:35:28.428Z,15.85
2017-06-30T15:36:38.685Z,15.96
2017-06-30T15:37:48.650Z,15.99
2017-06-30T15:38:58.628Z,16.13
2017-06-30T15:40:08.578Z,16.18
2017-06-30T15:41:19.136Z,16.17
2017-06-30T15:42:29.391Z,16.24
2017-06-30T15:43:39.647Z,16.34
2017-06-30T15:44:49.606Z,16.31
2017-06-30T15:45:59.551Z,16.26
2017-06-30T15:47:09.146Z,16.41
2017-06-30T15:48:19.091Z,16.46
2017-06-30T15:49:29.355Z,16.47
2017-06-30T15:50:39.629Z,16.59
2017-06-30T15:51:49.592Z,16.54
2017-06-30T15:52:59.811Z,16.61
2017-06-30T15:54:10.082Z,16.54
2017-06-30T15:55:20.352Z,16.5
2017-06-30T15:56:30.634Z,16.61
2017-06-30T15:57:40.594Z,16.65
2017-06-30T15:58:50.795Z,16.64
2017-06-30T16:00:00.748Z,16.69
2017-06-30T16:01:10.705Z,16.74
2017-06-30T16:02:20.984Z,16.76
2017-06-30T16:03:31.260Z,16.73
2017-06-30T16:04:41.836Z,16.73
2017-06-30T16:05:51.808Z,16.74
2017-06-30T16:07:02.078Z,16.69
2017-06-30T16:08:12.347Z,16.69
2017-06-30T16:09:22.286Z,16.82
2017-06-30T16:10:32.867Z,16.83
2017-06-30T16:11:43.145Z,16.84
2017-06-30T16:12:53.416Z,16.92
2017-06-30T16:14:03.391Z,17.01
2017-06-30T16:15:13.351Z,16.95
2017-06-30T16:16:23.906Z,16.87
2017-06-30T16:17:34.186Z,16.8
2017-06-30T16:18:44.451Z,16.95
2017-06-30T16:19:54.732Z,16.98
2017-06-30T16:21:05.022Z,16.89
2017-06-30T16:22:15.231Z,16.77
2017-06-30T16:23:25.548Z,16.77
2017-06-30T16:24:35.854Z,16.69
2017-06-30T16:25:46.132Z,16.87
2017-06-30T16:26:56.412Z,16.87
2017-06-30T16:28:06.919Z,16.89
2017-06-30T16:29:17.214Z,16.86
2017-06-30T16:30:27.479Z,16.84
2017-06-30T16:31:37.430Z,16.82
2017-06-30T16:32:47.694Z,16.83
2017-06-30T16:33:57.592Z,16.86
2017-06-30T16:35:07.848Z,16.76
2017-06-30T16:36:17.807Z,16.8
2017-06-30T16:37:27.772Z,16.83
2017-06-30T16:38:38.035Z,16.86
2017-06-30T16:39:48.599Z,16.95
2017-06-30T16:40:58.860Z,16.89
2017-06-30T16:42:08.830Z,16.86
2017-06-30T16:43:19.084Z,16.83
2017-06-30T16:44:29.059Z,16.84
2017-06-30T16:45:39.571Z,16.79
2017-06-30T16:46:49.514Z,16.82
2017-06-30T16:47:59.765Z,16.87
2017-06-30T16:49:09.726Z,16.95
2017-06-30T16:50:19.994Z,16.91
2017-06-30T16:51:30.518Z,16.74
2017-06-30T16:52:40.472Z,16.68
2017-06-30T16:53:50.749Z,16.51
2017-06-30T16:55:01.021Z,16.41
2017-06-30T16:56:10.686Z,16.47
2017-06-30T16:57:20.897Z,16.26
2017-06-30T16:58:30.867Z,16.28
2017-06-30T16:59:41.125Z,16.28
2017-06-30T17:00:51.392Z,16.05
2017-06-30T17:02:01.682Z,15.98
2017-06-30T17:03:11.877Z,15.92
2017-06-30T17:04:22.070Z,15.88
2017-06-30T17:05:32.043Z,15.75
2017-06-30T17:06:42.327Z,15.66
2017-06-30T17:07:52.598Z,15.51
2017-06-30T17:09:03.113Z,15.37
2017-06-30T17:10:13.384Z,15.19
2017-06-30T17:11:23.362Z,15.04
2017-06-30T17:12:33.319Z,14.9
2017-06-30T17:13:43.573Z,14.74
2017-06-30T17:14:54.096Z,14.63
2017-06-30T17:16:04.065Z,14.49
2017-06-30T17:17:14.345Z,14.53
2017-06-30T17:18:24.616Z,14.43
2017-06-30T17:19:34.561Z,14.3
2017-06-30T17:20:45.071Z,14.26
2017-06-30T17:21:55.337Z,14.23
2017-06-30T17:23:05.602Z,14.23
2017-06-30T17:24:15.248Z,14.3
2017-06-30T17:25:25.505Z,14.18
2017-06-30T17:26:35.725Z,14.16
2017-06-30T17:27:45.702Z,14.12
2017-06-30T17:28:55.946Z,14.12
2017-06-30T17:30:05.915Z,14.11
2017-06-30T17:31:15.866Z,14.15
2017-06-30T17:32:26.429Z,14.12
2017-06-30T17:33:36.706Z,14.11
2017-06-30T17:34:47.014Z,14.13
2017-06-30T17:35:57.270Z,14.13
2017-06-30T17:37:07.540Z,14.15
2017-06-30T17:38:18.075Z,14.15
2017-06-30T17:39:28.344Z,14.16
2017-06-30T17:40:37.970Z,14.26
2017-06-30T17:41:47.902Z,14.23
2017-06-30T17:42:57.586Z,14.26
2017-06-30T17:44:08.088Z,14.23
2017-06-30T17:45:18.346Z,14.26
2017-06-30T17:46:28.601Z,14.31
2017-06-30T17:47:38.852Z,14.26
2017-06-30T17:48:48.805Z,14.19
2017-06-30T17:49:59.315Z,14.22
2017-06-30T17:51:09.592Z,14.25
2017-06-30T17:52:19.866Z,14.26
2017-06-30T17:53:29.826Z,14.33
2017-06-30T17:54:40.093Z,14.23
2017-06-30T17:55:50.321Z,14.2
2017-06-30T17:57:00.589Z,14.28
2017-06-30T17:58:10.869Z,14.23
2017-06-30T17:59:21.144Z,14.33
2017-06-30T18:00:31.398Z,14.28
2017-06-30T18:01:41.902Z,14.3
2017-06-30T18:02:52.176Z,14.33
2017-06-30T18:04:02.449Z,14.25
2017-06-30T18:05:12.399Z,14.25
2017-06-30T18:06:22.682Z,14.22
2017-06-30T18:07:33.195Z,14.23
2017-06-30T18:08:43.469Z,14.23
2017-06-30T18:09:53.147Z,14.2
2017-06-30T18:11:03.430Z,14.3
2017-06-30T18:12:13.395Z,14.28
2017-06-30T18:13:23.596Z,14.3
2017-06-30T18:14:33.861Z,14.3
2017-06-30T18:15:44.151Z,14.22
2017-06-30T18:16:54.434Z,14.33
2017-06-30T18:18:04.402Z,14.3
2017-06-30T18:19:14.602Z,14.34
2017-06-30T18:20:24.871Z,14.31
2017-06-30T18:21:35.117Z,14.31
2017-06-30T18:22:44.771Z,14.33
2017-06-30T18:23:55.058Z,14.31
2017-06-30T18:25:05.572Z,14.34
2017-06-30T18:26:15.533Z,14.41
2017-06-30T18:27:25.828Z,14.38
2017-06-30T18:28:36.093Z,14.37
2017-06-30T18:29:46.031Z,14.34
2017-06-30T18:30:56.585Z,14.31
2017-06-30T18:32:06.864Z,14.36
2017-06-30T18:33:17.122Z,14.37
2017-06-30T18:34:26.843Z,14.41
2017-06-30T18:35:36.798Z,14.37
2017-06-30T18:36:47.401Z,14.38
2017-06-30T18:37:57.658Z,14.43
2017-06-30T18:39:07.933Z,14.37
2017-06-30T18:40:18.209Z,14.34
2017-06-30T18:41:28.488Z,14.33
2017-06-30T18:42:39.004Z,14.36
2017-06-30T18:43:48.689Z,14.3
2017-06-30T18:44:58.636Z,14.22
2017-06-30T18:46:08.928Z,14.33
2017-06-30T18:47:18.900Z,14.25
2017-06-30T18:48:29.433Z,14.33
2017-06-30T18:49:39.705Z,14.34
2017-06-30T18:50:49.960Z,14.25
2017-06-30T18:52:00.241Z,14.23
2017-06-30T18:53:10.502Z,14.18
2017-06-30T18:54:21.018Z,14.26
2017-06-30T18:55:30.976Z,14.31
2017-06-30T18:56:40.940Z,14.23
2017-06-30T18:57:50.599Z,14.26
2017-06-30T18:59:00.850Z,14.3
2017-06-30T19:00:11.422Z,14.3
2017-06-30T19:01:21.722Z,14.25
2017-06-30T19:02:31.672Z,14.26
2017-06-30T19:03:41.643Z,14.31
2017-06-30T19:04:51.936Z,14.25
2017-06-30T19:06:02.152Z,14.28
2017-06-30T19:07:12.400Z,14.26
2017-06-30T19:08:22.354Z,14.26
2017-06-30T19:09:32.616Z,14.26
2017-06-30T19:10:42.868Z,14.3
2017-06-30T19:11:53.091Z,14.26
2017-06-30T19:13:03.044Z,14.19
2017-06-30T19:14:13.310Z,14.2
2017-06-30T19:15:22.646Z,14.23
2017-06-30T19:16:32.919Z,14.23
2017-06-30T19:17:43.122Z,14.31
2017-06-30T19:18:52.472Z,14.2
2017-06-30T19:20:02.755Z,14.23
2017-06-30T19:21:12.725Z,14.26
2017-06-30T19:22:22.676Z,14.19
2017-06-30T19:23:33.237Z,14.23
2017-06-30T19:24:42.878Z,14.26
2017-06-30T19:25:53.168Z,14.28
2017-06-30T19:27:03.116Z,14.25
2017-06-30T19:28:13.072Z,14.18
2017-06-30T19:29:23.279Z,14.19
2017-06-30T19:30:33.549Z,14.15
2017-06-30T19:31:43.842Z,14.19
2017-06-30T19:32:54.114Z,14.13
2017-06-30T19:34:04.080Z,14.13
2017-06-30T19:35:14.606Z,14.25
2017-06-30T19:36:24.882Z,14.22
2017-06-30T19:37:35.155Z,14.12
2017-06-30T19:38:45.133Z,14.13
2017-06-30T19:39:55.409Z,14.16
2017-06-30T19:41:05.942Z,14.15
2017-06-30T19:42:15.901Z,14.12
2017-06-30T19:43:25.860Z,14.15
2017-06-30T19:44:36.118Z,14.07
2017-06-30T19:45:46.073Z,14.11
2017-06-30T19:46:56.579Z,14.15
2017-06-30T19:48:06.539Z,14.12
2017-06-30T19:49:16.805Z,14.12
2017-06-30T19:50:27.076Z,14.12
2017-06-30T19:51:37.331Z,14.12
2017-06-30T19:52:47.867Z,14.05